Katunayake, Sri Lanka
Current Conditions -  °F | °C
As of 2:10 PM on Saturday 01 Nov 2014 (Local Time) from VCBI Reporting Station
Scattered Clouds Scattered Clouds  
Wind Chill: 86°   Ceiling: Unl
Heat Index: 93°   Visibility: 6mi
Dew Point: 73°   Wind: 8mph
Humidity: 66%   Direction: 250°WSW
Pressure: 29.77"   Gusts: NA
Location:  7.17°N, 79.88°E
Report Text: VCBI 010810Z 25007KT 210V290 9999 SCT016 30/23 Q1008 NOSIG
Loading
Personal Weather Stations






























Interactive Weather Map
Tropical Storm Tracking
New forecast layout! Learn more

10-Day Weather Forecast

Advertisements
Track Severe Weather on mobile